createdAt,value
2017-08-30T00:00:22.828Z,100355
2017-08-30T00:02:50.951Z,100357
2017-08-30T00:05:19.048Z,100348
2017-08-30T00:07:47.136Z,100350
2017-08-30T00:10:15.414Z,100347
2017-08-30T00:12:43.541Z,100345
2017-08-30T00:15:11.777Z,100348
2017-08-30T00:17:40.236Z,100345
2017-08-30T00:20:08.626Z,100343
2017-08-30T00:22:37.072Z,100342
2017-08-30T00:25:22.676Z,100326
2017-08-30T00:27:50.781Z,100330
2017-08-30T00:30:19.759Z,100319
2017-08-30T00:32:48.579Z,100325
2017-08-30T00:35:16.933Z,100335
2017-08-30T00:37:45.074Z,100338
2017-08-30T00:40:14.078Z,100322
2017-08-30T00:42:42.450Z,100320
2017-08-30T00:45:11.643Z,100334
2017-08-30T00:47:39.737Z,100314
2017-08-30T00:50:07.812Z,100317
2017-08-30T00:52:37.087Z,100316
2017-08-30T00:55:05.178Z,100317
2017-08-30T00:57:33.500Z,100310
2017-08-30T01:00:01.600Z,100281
2017-08-30T01:02:29.745Z,100297
2017-08-30T01:04:58.089Z,100307
2017-08-30T01:07:26.314Z,100291
2017-08-30T01:09:54.436Z,100286
2017-08-30T01:12:22.608Z,100291
2017-08-30T01:14:50.784Z,100290
2017-08-30T01:17:19.972Z,100286
2017-08-30T01:19:48.346Z,100288
2017-08-30T01:22:16.682Z,100289
2017-08-30T01:24:44.994Z,100288
2017-08-30T01:27:13.797Z,100287
2017-08-30T01:29:41.884Z,100288
2017-08-30T01:32:09.960Z,100285
2017-08-30T01:34:38.307Z,100278
2017-08-30T01:37:06.836Z,100267
2017-08-30T01:39:35.838Z,100267
2017-08-30T01:42:04.173Z,100264
2017-08-30T01:44:32.603Z,100274
2017-08-30T01:47:01.874Z,100262
2017-08-30T01:49:31.056Z,100254
2017-08-30T01:51:59.178Z,100254
2017-08-30T01:54:27.923Z,100244
2017-08-30T01:56:56.255Z,100221
2017-08-30T01:59:24.345Z,100245
2017-08-30T02:01:52.741Z,100248
2017-08-30T02:04:20.848Z,100239
2017-08-30T02:06:49.231Z,100236
2017-08-30T02:09:17.482Z,100239
2017-08-30T02:11:46.670Z,100238
2017-08-30T02:14:14.767Z,100229
2017-08-30T02:16:42.852Z,100236
2017-08-30T02:19:11.071Z,100215
2017-08-30T02:21:39.277Z,100231
2017-08-30T02:24:07.752Z,100231
2017-08-30T02:26:36.090Z,100230
2017-08-30T02:29:04.350Z,100230
2017-08-30T02:31:32.443Z,100234
2017-08-30T02:34:00.615Z,100212
2017-08-30T02:36:28.735Z,100209
2017-08-30T02:38:56.858Z,100217
2017-08-30T02:41:25.871Z,100217
2017-08-30T02:43:54.203Z,100215
2017-08-30T02:46:22.438Z,100038
2017-08-30T02:48:50.563Z,100207
2017-08-30T02:51:18.887Z,100219
2017-08-30T02:53:47.216Z,100212
2017-08-30T02:56:15.454Z,100205
2017-08-30T02:58:43.795Z,100206
2017-08-30T03:01:11.903Z,100208
2017-08-30T03:03:39.991Z,100201
2017-08-30T03:06:09.023Z,100199
2017-08-30T03:08:37.363Z,100191
2017-08-30T03:11:05.443Z,100185
2017-08-30T03:13:33.691Z,100193
2017-08-30T03:16:01.799Z,100198
2017-08-30T03:18:29.927Z,100202
2017-08-30T03:20:58.024Z,100188
2017-08-30T03:23:27.163Z,100190
2017-08-30T03:25:56.106Z,100187
2017-08-30T03:28:24.405Z,100181
2017-08-30T03:30:52.499Z,100182
2017-08-30T03:33:20.824Z,100184
2017-08-30T03:35:49.166Z,100184
2017-08-30T03:38:17.244Z,100183
2017-08-30T03:40:45.575Z,100174
2017-08-30T03:43:13.897Z,100182
2017-08-30T03:45:42.004Z,100174
2017-08-30T03:48:10.932Z,100163
2017-08-30T03:50:39.208Z,100169
2017-08-30T03:53:07.775Z,100163
2017-08-30T03:55:35.916Z,100167
2017-08-30T03:58:04.176Z,100171
2017-08-30T04:00:32.427Z,100172
2017-08-30T04:03:00.582Z,100166
2017-08-30T04:05:28.939Z,100165
2017-08-30T04:07:57.071Z,100167
2017-08-30T04:10:25.212Z,100156
2017-08-30T04:12:53.312Z,100151
2017-08-30T04:15:21.650Z,100151
2017-08-30T04:17:50.118Z,100148
2017-08-30T04:20:19.211Z,100147
2017-08-30T04:22:47.385Z,100151
2017-08-30T04:25:15.499Z,100146
2017-08-30T04:27:43.854Z,100141
2017-08-30T04:30:11.955Z,100148
2017-08-30T04:32:40.839Z,100141
2017-08-30T04:35:08.987Z,100146
2017-08-30T04:37:37.990Z,100135
2017-08-30T04:40:06.413Z,100126
2017-08-30T04:42:34.719Z,100125
2017-08-30T04:45:02.834Z,100113
2017-08-30T04:47:30.936Z,100112
2017-08-30T04:49:59.280Z,100106
2017-08-30T04:52:28.151Z,100096
2017-08-30T04:54:56.478Z,100091
2017-08-30T04:57:24.811Z,100097
2017-08-30T04:59:53.863Z,100090
2017-08-30T05:02:22.183Z,100096
2017-08-30T05:04:50.283Z,100093
2017-08-30T05:07:18.387Z,100092
2017-08-30T05:09:46.564Z,100092
2017-08-30T05:12:14.720Z,100099
2017-08-30T05:14:43.047Z,100093
2017-08-30T05:17:11.371Z,100096
2017-08-30T05:19:39.477Z,100096
2017-08-30T05:22:07.804Z,100096
2017-08-30T05:24:36.713Z,100087
2017-08-30T05:27:05.688Z,100086
2017-08-30T05:29:34.039Z,100083
2017-08-30T05:32:02.940Z,100084
2017-08-30T05:34:31.907Z,100082
2017-08-30T05:37:00.243Z,100084
2017-08-30T05:39:28.364Z,100082
2017-08-30T05:41:56.459Z,100082
2017-08-30T05:44:25.633Z,100086
2017-08-30T05:46:53.968Z,100075
2017-08-30T05:49:22.899Z,100070
2017-08-30T05:51:51.261Z,100057
2017-08-30T05:54:19.363Z,100052
2017-08-30T05:56:47.633Z,100046
2017-08-30T05:59:16.063Z,100045
2017-08-30T06:01:46.842Z,100036
2017-08-30T06:04:15.206Z,100033
2017-08-30T06:06:43.316Z,100045
2017-08-30T06:09:11.528Z,100036
2017-08-30T06:11:39.609Z,100030
2017-08-30T06:14:07.964Z,100024
2017-08-30T06:16:36.292Z,100023
2017-08-30T06:19:05.404Z,100027
2017-08-30T06:21:33.743Z,100028
2017-08-30T06:24:02.108Z,100022
2017-08-30T06:26:30.270Z,100033
2017-08-30T06:28:58.612Z,100039
2017-08-30T06:31:26.939Z,100026
2017-08-30T06:33:56.092Z,100025
2017-08-30T06:36:24.268Z,100025
2017-08-30T06:38:52.625Z,100026
2017-08-30T06:41:21.548Z,100020
2017-08-30T06:43:49.939Z,100017
2017-08-30T06:46:18.017Z,100020
2017-08-30T06:48:46.365Z,100021
2017-08-30T06:51:14.675Z,100021
2017-08-30T06:53:42.863Z,100028
2017-08-30T06:56:11.110Z,100036
2017-08-30T06:58:39.439Z,100045
2017-08-30T07:01:07.875Z,100063
2017-08-30T07:03:35.958Z,100073
2017-08-30T07:06:04.299Z,100070
2017-08-30T07:08:32.408Z,100117
2017-08-30T07:11:01.615Z,100142
2017-08-30T07:13:29.696Z,100155
2017-08-30T07:15:57.826Z,100182
2017-08-30T07:18:26.888Z,100221
2017-08-30T07:20:55.027Z,100265
2017-08-30T07:23:23.252Z,100248
2017-08-30T07:25:51.603Z,100245
2017-08-30T07:28:20.009Z,100227
2017-08-30T07:30:48.357Z,100228
2017-08-30T07:33:16.719Z,100202
2017-08-30T07:35:45.119Z,100217
2017-08-30T07:38:14.183Z,100210
2017-08-30T07:40:45.608Z,100205
2017-08-30T07:43:13.700Z,100211
2017-08-30T07:45:42.039Z,100191
2017-08-30T07:48:10.128Z,100193
2017-08-30T07:50:38.236Z,100189
2017-08-30T07:53:06.347Z,100171
2017-08-30T07:55:34.468Z,100179
2017-08-30T07:58:02.839Z,100193
2017-08-30T08:00:33.056Z,100185
2017-08-30T08:03:01.157Z,100166
2017-08-30T08:05:29.530Z,100173
2017-08-30T08:07:57.834Z,100182
2017-08-30T08:10:26.313Z,100177
2017-08-30T08:12:54.589Z,100172
2017-08-30T08:15:22.716Z,100144
2017-08-30T08:17:52.858Z,100162
2017-08-30T08:20:21.671Z,100165
2017-08-30T08:22:50.435Z,100162
2017-08-30T08:25:18.539Z,100158
2017-08-30T08:27:46.671Z,100151
2017-08-30T08:30:15.904Z,100157
2017-08-30T08:32:44.023Z,100153
2017-08-30T08:35:12.122Z,100157
2017-08-30T08:37:40.307Z,100167
2017-08-30T08:40:08.457Z,100173
2017-08-30T08:42:37.608Z,100180
2017-08-30T08:45:05.919Z,100162
2017-08-30T08:47:34.235Z,100165
2017-08-30T08:50:02.499Z,100180
2017-08-30T08:52:30.748Z,100182
2017-08-30T08:54:58.823Z,100187
2017-08-30T08:57:27.909Z,100205
2017-08-30T08:59:56.030Z,100195
2017-08-30T09:02:24.393Z,100194
2017-08-30T09:04:53.056Z,100188
2017-08-30T09:07:21.408Z,100171
2017-08-30T09:09:49.716Z,100160
2017-08-30T09:12:18.103Z,100156
2017-08-30T09:14:46.447Z,100152
2017-08-30T09:17:14.799Z,100139
2017-08-30T09:19:45.078Z,100132
2017-08-30T09:22:13.198Z,100142
2017-08-30T09:24:41.283Z,100152
2017-08-30T09:27:09.391Z,100148
2017-08-30T09:29:37.887Z,100153
2017-08-30T09:32:05.980Z,100190
2017-08-30T09:34:34.848Z,100198
2017-08-30T09:37:03.788Z,100180
2017-08-30T09:39:32.340Z,100166
2017-08-30T09:42:00.470Z,100159
2017-08-30T09:44:28.863Z,100144
2017-08-30T09:46:57.145Z,100133
2017-08-30T09:49:25.244Z,100140
2017-08-30T09:51:53.320Z,100110
2017-08-30T09:54:21.654Z,100078
2017-08-30T09:56:49.746Z,100101
2017-08-30T09:59:18.115Z,100118
2017-08-30T10:01:46.644Z,100117
2017-08-30T10:04:15.014Z,100115
2017-08-30T10:06:43.340Z,100118
2017-08-30T10:09:11.677Z,100118
2017-08-30T10:11:39.764Z,100111
2017-08-30T10:14:07.903Z,100101
2017-08-30T10:16:36.003Z,100108
2017-08-30T10:19:04.137Z,100089
2017-08-30T10:21:32.240Z,100074
2017-08-30T10:24:00.610Z,100062
2017-08-30T10:26:28.697Z,100058
2017-08-30T10:28:56.968Z,100056
2017-08-30T10:31:27.208Z,100051
2017-08-30T10:33:55.470Z,100059
2017-08-30T10:36:23.623Z,100055
2017-08-30T10:38:51.955Z,100076
2017-08-30T10:41:20.290Z,100073
2017-08-30T10:43:48.604Z,100090
2017-08-30T10:46:16.741Z,100078
2017-08-30T10:48:44.838Z,100070
2017-08-30T10:51:13.152Z,100069
2017-08-30T10:53:42.403Z,100065
2017-08-30T10:56:11.419Z,100081
2017-08-30T10:58:39.588Z,100076
2017-08-30T11:01:07.688Z,100077
2017-08-30T11:03:36.122Z,100075
2017-08-30T11:06:04.456Z,100079
2017-08-30T11:08:32.835Z,100091
2017-08-30T11:11:01.240Z,100106
2017-08-30T11:13:29.596Z,100119
2017-08-30T11:15:57.687Z,100126
2017-08-30T11:18:25.807Z,100127
2017-08-30T11:20:54.164Z,100127
2017-08-30T11:23:22.492Z,100127
2017-08-30T11:25:50.567Z,100116
2017-08-30T11:28:18.952Z,100109
2017-08-30T11:30:47.291Z,100107
2017-08-30T11:33:15.416Z,100108
2017-08-30T11:35:44.671Z,100102
2017-08-30T11:38:13.001Z,100113
2017-08-30T11:40:41.124Z,100108
2017-08-30T11:43:09.531Z,100100
2017-08-30T11:45:38.355Z,100091
2017-08-30T11:48:06.635Z,100088
2017-08-30T11:50:34.766Z,100074
2017-08-30T11:53:02.859Z,100041
2017-08-30T11:55:31.860Z,100079
2017-08-30T11:58:00.173Z,100062
2017-08-30T12:00:28.633Z,100070
2017-08-30T12:02:56.964Z,100074
2017-08-30T12:05:25.308Z,100085
2017-08-30T12:07:53.700Z,100089
2017-08-30T12:10:21.785Z,100098
2017-08-30T12:12:50.134Z,100097
2017-08-30T12:15:19.173Z,100096
2017-08-30T12:17:47.284Z,100095
2017-08-30T12:20:15.582Z,100088
2017-08-30T12:22:43.756Z,100099
2017-08-30T12:25:12.156Z,100100
2017-08-30T12:27:40.400Z,100103
2017-08-30T12:30:08.528Z,100109
2017-08-30T12:32:38.747Z,100101
2017-08-30T12:35:06.961Z,100101
2017-08-30T12:37:41.814Z,100105
2017-08-30T12:40:10.044Z,100105
2017-08-30T12:42:38.118Z,100106
2017-08-30T12:45:06.217Z,100102
2017-08-30T12:47:34.583Z,100104
2017-08-30T12:50:02.896Z,100100
2017-08-30T12:52:31.224Z,100101
2017-08-30T12:54:59.414Z,100098
2017-08-30T12:57:27.741Z,100100
2017-08-30T12:59:56.080Z,100093
2017-08-30T13:02:24.429Z,100090
2017-08-30T13:04:53.546Z,100101
2017-08-30T13:07:21.632Z,100087
2017-08-30T13:09:49.968Z,100087
2017-08-30T13:12:18.064Z,100086
2017-08-30T13:14:46.395Z,100088
2017-08-30T13:17:14.720Z,100094
2017-08-30T13:19:42.876Z,100088
2017-08-30T13:22:10.989Z,100097
2017-08-30T13:24:39.097Z,100086
2017-08-30T13:27:07.875Z,100077
2017-08-30T13:29:36.232Z,100074
2017-08-30T13:32:04.310Z,100030
2017-08-30T13:34:32.535Z,100062
2017-08-30T13:37:00.731Z,100053
2017-08-30T13:39:29.055Z,100056
2017-08-30T13:41:57.395Z,100053
2017-08-30T13:44:25.543Z,100055
2017-08-30T13:46:53.913Z,100057
2017-08-30T13:49:22.254Z,100051
2017-08-30T13:51:50.363Z,100039
2017-08-30T13:54:18.486Z,100044
2017-08-30T13:56:46.805Z,100039
2017-08-30T13:59:15.811Z,100045
2017-08-30T14:01:43.920Z,100047
2017-08-30T14:04:12.304Z,100045
2017-08-30T14:06:40.619Z,100042
2017-08-30T14:09:08.924Z,100042
2017-08-30T14:11:37.115Z,100032
2017-08-30T14:14:05.219Z,100036
2017-08-30T14:16:33.416Z,100032
2017-08-30T14:19:01.508Z,100035
2017-08-30T14:21:29.615Z,100028
2017-08-30T14:23:57.735Z,100024
2017-08-30T14:26:26.058Z,100023
2017-08-30T14:28:54.157Z,100020
2017-08-30T14:31:22.356Z,100022
2017-08-30T14:33:50.451Z,100014
2017-08-30T14:36:18.551Z,100019
2017-08-30T14:38:46.641Z,100017
2017-08-30T14:41:15.453Z,100022
2017-08-30T14:43:44.464Z,100021
2017-08-30T14:46:13.471Z,100034
2017-08-30T14:48:41.731Z,100019
2017-08-30T14:51:10.924Z,100032
2017-08-30T14:53:40.002Z,100023
2017-08-30T14:56:08.124Z,100023
2017-08-30T14:58:37.484Z,100028
2017-08-30T15:01:05.652Z,100036
2017-08-30T15:03:33.936Z,100028
2017-08-30T15:06:02.878Z,100030
2017-08-30T15:08:30.992Z,100019
2017-08-30T15:10:59.108Z,100020
2017-08-30T15:13:27.439Z,100011
2017-08-30T15:15:55.778Z,100007
2017-08-30T15:18:24.143Z,100015
2017-08-30T15:20:52.270Z,100006
2017-08-30T15:23:20.447Z,100003
2017-08-30T15:25:48.835Z,100006
2017-08-30T15:28:17.935Z,100018
2017-08-30T15:30:46.039Z,100028
2017-08-30T15:33:14.439Z,100025
2017-08-30T15:35:43.329Z,100028
2017-08-30T15:38:11.471Z,100024
2017-08-30T15:40:39.824Z,100027
2017-08-30T15:43:07.910Z,100038
2017-08-30T15:45:36.086Z,100026
2017-08-30T15:48:04.205Z,100018
2017-08-30T15:50:34.264Z,100013
2017-08-30T15:53:07.234Z,100011
2017-08-30T15:55:37.297Z,100012
2017-08-30T15:58:05.416Z,100008
2017-08-30T16:00:35.447Z,100011
2017-08-30T16:03:04.472Z,100003
2017-08-30T16:05:32.599Z,99993
2017-08-30T16:08:00.722Z,99981
2017-08-30T16:10:28.896Z,99988
2017-08-30T16:12:56.990Z,99984
2017-08-30T16:15:25.098Z,99985
2017-08-30T16:17:53.192Z,99980
2017-08-30T16:20:21.309Z,99985
2017-08-30T16:22:49.411Z,99979
2017-08-30T16:25:18.444Z,99981
2017-08-30T16:27:46.569Z,99973
2017-08-30T16:30:14.650Z,99972
2017-08-30T16:32:42.801Z,99960
2017-08-30T16:35:10.881Z,99956
2017-08-30T16:37:39.940Z,99963
2017-08-30T16:40:08.092Z,99968
2017-08-30T16:42:36.191Z,99961
2017-08-30T16:45:04.305Z,99966
2017-08-30T16:47:32.392Z,99972
2017-08-30T16:50:01.328Z,99990
2017-08-30T16:52:36.780Z,99980
2017-08-30T16:55:05.923Z,99962
2017-08-30T16:57:34.095Z,99957
2017-08-30T17:00:02.242Z,99955
2017-08-30T17:02:30.455Z,99960
2017-08-30T17:04:58.597Z,99948
2017-08-30T17:07:26.712Z,99953
2017-08-30T17:09:54.892Z,99940
2017-08-30T17:12:22.985Z,99931
2017-08-30T17:14:51.216Z,99950
2017-08-30T17:17:20.284Z,99941
2017-08-30T17:19:49.334Z,99943
2017-08-30T17:22:18.404Z,99931
2017-08-30T17:24:46.567Z,99934
2017-08-30T17:27:16.645Z,99927
2017-08-30T17:29:45.472Z,99934
2017-08-30T17:32:14.703Z,99927
2017-08-30T17:34:42.899Z,99927
2017-08-30T17:37:11.406Z,99928
2017-08-30T17:39:41.456Z,99928
2017-08-30T17:42:10.615Z,99936
2017-08-30T17:44:38.929Z,99944
2017-08-30T17:47:07.324Z,99934
2017-08-30T17:49:35.633Z,99932
2017-08-30T17:52:03.996Z,99937
2017-08-30T17:54:32.183Z,99941
2017-08-30T17:57:00.304Z,99952
2017-08-30T17:59:28.454Z,99948
2017-08-30T18:01:58.595Z,99951
2017-08-30T18:04:26.755Z,99945
2017-08-30T18:06:55.677Z,99942
2017-08-30T18:09:24.060Z,99956
2017-08-30T18:11:52.195Z,99959
2017-08-30T18:14:20.408Z,99964
2017-08-30T18:16:48.918Z,99953
2017-08-30T18:19:18.034Z,99960
2017-08-30T18:21:46.467Z,99975
2017-08-30T18:24:15.420Z,99972
2017-08-30T18:26:43.881Z,99970
2017-08-30T18:29:12.383Z,99968
2017-08-30T18:31:41.711Z,99982
2017-08-30T18:34:12.837Z,99987
2017-08-30T18:36:41.047Z,99974
2017-08-30T18:39:09.147Z,99975
2017-08-30T18:41:38.021Z,99977
2017-08-30T18:44:06.131Z,99989
2017-08-30T18:46:34.935Z,99999
2017-08-30T18:49:05.845Z,100004
2017-08-30T18:51:34.041Z,100005
2017-08-30T18:54:02.140Z,99996
2017-08-30T18:56:30.249Z,99995
2017-08-30T18:58:58.348Z,100000
2017-08-30T19:01:27.540Z,99986
2017-08-30T19:03:55.724Z,99998
2017-08-30T19:06:23.828Z,100008
2017-08-30T19:08:52.833Z,99991
2017-08-30T19:11:20.941Z,100020
2017-08-30T19:13:49.056Z,100055
2017-08-30T19:16:17.160Z,100052
2017-08-30T19:18:45.263Z,100065
2017-08-30T19:21:14.265Z,100061
2017-08-30T19:23:42.361Z,100068
2017-08-30T19:26:10.476Z,100084
2017-08-30T19:28:38.560Z,100076
2017-08-30T19:31:06.683Z,100063
2017-08-30T19:33:34.778Z,100081
2017-08-30T19:36:02.873Z,100085
2017-08-30T19:38:30.975Z,100083
2017-08-30T19:40:59.102Z,100087
2017-08-30T19:43:28.136Z,100097
2017-08-30T19:45:56.219Z,100096
2017-08-30T19:48:24.319Z,100088
2017-08-30T19:50:52.415Z,100079
2017-08-30T19:53:20.497Z,100090
2017-08-30T19:55:48.595Z,100092
2017-08-30T19:58:16.676Z,100101
2017-08-30T20:00:44.781Z,100112
2017-08-30T20:03:12.886Z,100123
2017-08-30T20:05:40.983Z,100119
2017-08-30T20:08:09.085Z,100119
2017-08-30T20:10:39.720Z,100143
2017-08-30T20:13:07.838Z,100126
2017-08-30T20:15:35.928Z,100134
2017-08-30T20:18:04.030Z,100135
2017-08-30T20:20:32.131Z,100120
2017-08-30T20:23:00.221Z,100122
2017-08-30T20:25:28.311Z,100131
2017-08-30T20:27:56.433Z,100124
2017-08-30T20:30:24.550Z,100129
2017-08-30T20:32:52.659Z,100135
2017-08-30T20:35:21.655Z,100146
2017-08-30T20:37:49.750Z,100135
2017-08-30T20:40:17.911Z,100143
2017-08-30T20:42:46.002Z,100152
2017-08-30T20:45:14.123Z,100155
2017-08-30T20:47:42.221Z,100158
2017-08-30T20:50:10.323Z,100156
2017-08-30T20:52:38.515Z,100156
2017-08-30T20:55:06.740Z,100156
2017-08-30T20:57:34.847Z,100166
2017-08-30T21:00:02.963Z,100167
2017-08-30T21:02:31.055Z,100159
2017-08-30T21:05:00.095Z,100152
2017-08-30T21:07:28.206Z,100155
2017-08-30T21:09:56.518Z,100146
2017-08-30T21:12:24.595Z,100157
2017-08-30T21:14:52.766Z,100160
2017-08-30T21:17:20.856Z,100156
2017-08-30T21:19:49.983Z,100146
2017-08-30T21:22:18.068Z,100155
2017-08-30T21:24:46.144Z,100160
2017-08-30T21:27:14.288Z,100155
2017-08-30T21:29:42.460Z,100162
2017-08-30T21:32:10.567Z,100166
2017-08-30T21:34:38.684Z,100167
2017-08-30T21:37:06.805Z,100172
2017-08-30T21:39:34.944Z,100158
2017-08-30T21:42:03.747Z,100164
2017-08-30T21:44:32.266Z,100170
2017-08-30T21:47:00.339Z,100183
2017-08-30T21:49:28.437Z,100192
2017-08-30T21:51:56.516Z,100193
2017-08-30T21:54:25.495Z,100176
2017-08-30T21:56:54.518Z,100157
2017-08-30T21:59:22.622Z,100165
2017-08-30T22:01:50.706Z,100147
2017-08-30T22:04:18.777Z,100132
2017-08-30T22:06:46.874Z,100155
2017-08-30T22:09:14.951Z,100165
2017-08-30T22:11:43.054Z,100174
2017-08-30T22:14:12.090Z,100177
2017-08-30T22:16:40.364Z,100175
2017-08-30T22:19:08.703Z,100174
2017-08-30T22:21:36.795Z,100152
2017-08-30T22:24:04.870Z,100166
2017-08-30T22:26:32.979Z,100172
2017-08-30T22:29:01.353Z,100162
2017-08-30T22:31:29.427Z,100189
2017-08-30T22:33:57.626Z,100199
2017-08-30T22:36:26.411Z,100194
2017-08-30T22:38:55.432Z,100194
2017-08-30T22:41:23.800Z,100193
2017-08-30T22:43:51.883Z,100186
2017-08-30T22:46:20.256Z,100182
2017-08-30T22:48:48.611Z,100179
2017-08-30T22:51:16.991Z,100189
2017-08-30T22:53:45.318Z,100184
2017-08-30T22:56:13.571Z,100172
2017-08-30T22:58:41.741Z,100168
2017-08-30T23:01:10.507Z,100187
2017-08-30T23:03:38.863Z,100188
2017-08-30T23:06:07.806Z,100170
2017-08-30T23:08:35.923Z,100169
2017-08-30T23:11:04.036Z,100167
2017-08-30T23:13:33.292Z,100174
2017-08-30T23:16:01.550Z,100185
2017-08-30T23:18:29.888Z,100182
2017-08-30T23:20:59.243Z,100172
2017-08-30T23:23:27.337Z,100168
2017-08-30T23:25:56.387Z,100167
2017-08-30T23:28:24.678Z,100174
2017-08-30T23:30:54.076Z,100155
2017-08-30T23:33:22.176Z,100150
2017-08-30T23:35:50.503Z,100141
2017-08-30T23:38:18.848Z,100136
2017-08-30T23:40:46.930Z,100145
2017-08-30T23:43:15.071Z,100142
2017-08-30T23:45:43.176Z,100149
2017-08-30T23:48:11.519Z,100147
2017-08-30T23:50:39.903Z,100133
2017-08-30T23:53:08.108Z,100145
2017-08-30T23:55:37.560Z,100140
2017-08-30T23:58:05.677Z,100141
